Airfield :
LOGIN :

Register | Disclaimer

   EN    FR    IT 

 










Legend :    VFR   Marginal VFR   IFR   Intensive IFR   Very Intensive IFR
Visi :
Ceiling :
>= 8 km
>= 3000ft
5 to 8 km
1000 to 3000 ft
1500m to 5 km
500 to 1000 ft
800 to 1500m
200 to 500 ft
< 800m
< 200 ft
Symbols :   Thunderstorms  Fog  Heavy snow  Heavy precipitations  Wind > 20 kt
SIGMETs :     Misc.  Thunderstorms  Icing  Turbulence  Mountain Waves  Volcanic Ashes






- Airport Elevation : 256 ft
- IATA code : KUN


EYKA - Kaunas

CURRENT METAR :
  • 120550Z 13010KT 4400 BR OVC003 03/02 Q1017 R08/290095

EXPIRED METARs :
  • 120520Z 11008KT 9999 OVC003 02/02 Q1017 R08/290095
  • 120450Z 11006KT 9999 BKN002 OVC004 02/01 Q1017 R08/290095
  • 120420Z 10005KT 5000 BR OVC002 01/01 Q1017 R08/290095
  • 120350Z 11004KT 9999 0700E BCFG OVC003 01/00 Q1017 R08/290095
  • 120320Z 12004KT 2600 0500E BR BCFG OVC002 01/M00 Q1018

TAF TAF EYKA
Valid from the 12 at 06:00 until the 13 at 06:00 UTC


120501Z 1206/1306 15008KT 5000 BR BKN005
TEMPO 1206/1208 1500 BKN003
BECMG 1208/1209 8000 SCT005 BKN020
TEMPO 1221/1306 -SHRA BKN015CB



MET'MAP, your aeronautical weather chart ! - Copyright ORBIFLY December 2007 - Disclaimer

ORBIFLY MET'MAP TEAM :

Programming & Development : Alexandra Zaïnal
Concept & Development : Baudouin d'Aumeries
Co-Development & Prog : Marc-Olivier Méhu
Technical & hardware support : Manuel Goepfert

Contact : metmap@orbifly.com




SOURCES & CREDITS :

   NOAA